createdAt,value
2018-06-08T00:01:11.170Z,6.70
2018-06-08T00:03:38.785Z,6.97
2018-06-08T00:06:06.392Z,7.50
2018-06-08T00:08:33.986Z,7.40
2018-06-08T00:11:01.585Z,8.37
2018-06-08T00:13:29.338Z,8.17
2018-06-08T00:15:56.933Z,8.80
2018-06-08T00:18:24.531Z,7.60
2018-06-08T00:20:52.117Z,8.07
2018-06-08T00:23:19.712Z,8.10
2018-06-08T00:25:47.278Z,8.60
2018-06-08T00:28:14.856Z,8.87
2018-06-08T00:30:42.441Z,8.07
2018-06-08T00:33:10.022Z,7.53
2018-06-08T00:35:37.612Z,6.90
2018-06-08T00:38:05.438Z,7.20
2018-06-08T00:40:33.032Z,8.93
2018-06-08T00:43:00.597Z,7.27
2018-06-08T00:45:28.278Z,8.70
2018-06-08T00:47:55.862Z,7.53
2018-06-08T00:50:23.448Z,8.63
2018-06-08T00:52:51.046Z,8.13
2018-06-08T00:55:18.710Z,8.20
2018-06-08T00:57:46.269Z,8.10
2018-06-08T01:00:13.874Z,8.00
2018-06-08T01:02:41.477Z,8.67
2018-06-08T01:05:09.039Z,8.80
2018-06-08T01:07:36.640Z,8.77
2018-06-08T01:10:04.285Z,8.40
2018-06-08T01:12:31.866Z,9.00
2018-06-08T01:14:59.506Z,8.97
2018-06-08T01:17:27.096Z,7.77
2018-06-08T01:19:55.229Z,9.40
2018-06-08T01:22:22.836Z,8.40
2018-06-08T01:24:50.427Z,8.13
2018-06-08T01:27:18.050Z,9.10
2018-06-08T01:29:45.633Z,8.93
2018-06-08T01:32:13.214Z,7.90
2018-06-08T01:34:40.819Z,7.90
2018-06-08T01:37:08.425Z,8.33
2018-06-08T01:39:36.025Z,10.17
2018-06-08T01:42:03.641Z,10.10
2018-06-08T01:44:31.249Z,8.17
2018-06-08T01:46:58.813Z,8.80
2018-06-08T01:49:26.402Z,10.50
2018-06-08T01:51:53.975Z,8.70
2018-06-08T01:54:21.592Z,9.00
2018-06-08T01:56:49.190Z,9.83
2018-06-08T01:59:16.790Z,10.77
2018-06-08T02:01:44.383Z,9.43
2018-06-08T02:04:11.999Z,9.37
2018-06-08T02:06:39.596Z,8.80
2018-06-08T02:09:07.529Z,9.23
2018-06-08T02:11:35.189Z,8.83
2018-06-08T02:14:02.785Z,9.20
2018-06-08T02:16:30.353Z,9.77
2018-06-08T02:18:57.901Z,8.63
2018-06-08T02:21:25.500Z,9.70
2018-06-08T02:23:53.085Z,9.30
2018-06-08T02:26:20.717Z,10.20
2018-06-08T02:28:48.327Z,9.13
2018-06-08T02:31:15.916Z,10.07
2018-06-08T02:33:43.544Z,10.03
2018-06-08T02:36:11.134Z,8.93
2018-06-08T02:38:38.709Z,8.90
2018-06-08T02:41:06.368Z,9.40
2018-06-08T02:43:33.975Z,9.73
2018-06-08T02:46:01.612Z,11.00
2018-06-08T02:48:29.216Z,10.87
2018-06-08T02:50:56.816Z,10.77
2018-06-08T02:53:24.438Z,10.07
2018-06-08T02:55:52.041Z,10.07
2018-06-08T02:58:19.642Z,10.43
2018-06-08T03:00:47.254Z,10.83
2018-06-08T03:03:14.883Z,10.53
2018-06-08T03:05:42.521Z,10.33
2018-06-08T03:08:10.113Z,10.80
2018-06-08T03:10:37.699Z,11.00
2018-06-08T03:13:05.308Z,11.13
2018-06-08T03:15:32.901Z,11.20
2018-06-08T03:18:00.504Z,11.00
2018-06-08T03:20:28.094Z,10.30
2018-06-08T03:22:55.674Z,10.67
2018-06-08T03:25:23.255Z,10.40
2018-06-08T03:27:50.832Z,10.87
2018-06-08T03:30:18.435Z,11.07
2018-06-08T03:32:46.053Z,12.17
2018-06-08T03:35:13.704Z,10.37
2018-06-08T03:37:41.294Z,10.93
2018-06-08T03:40:08.879Z,10.60
2018-06-08T03:42:36.460Z,11.17
2018-06-08T03:45:04.091Z,10.60
2018-06-08T03:47:31.675Z,11.07
2018-06-08T03:49:59.315Z,11.03
2018-06-08T03:52:26.897Z,11.53
2018-06-08T03:54:54.496Z,11.60
2018-06-08T03:57:22.122Z,11.50
2018-06-08T03:59:49.721Z,12.20
2018-06-08T04:02:17.321Z,11.67
2018-06-08T04:04:44.932Z,13.20
2018-06-08T04:07:12.533Z,12.47
2018-06-08T04:09:40.108Z,12.13
2018-06-08T04:12:07.697Z,11.53
2018-06-08T04:14:35.303Z,13.57
2018-06-08T04:17:02.883Z,12.10
2018-06-08T04:19:30.497Z,13.17
2018-06-08T04:21:58.101Z,12.10
2018-06-08T04:24:25.714Z,13.40
2018-06-08T04:26:53.316Z,13.70
2018-06-08T04:29:21.001Z,14.53
2018-06-08T04:31:48.627Z,13.20
2018-06-08T04:34:16.239Z,12.77
2018-06-08T04:36:43.834Z,13.33
2018-06-08T04:39:11.439Z,13.83
2018-06-08T04:41:39.058Z,13.40
2018-06-08T04:44:06.646Z,13.37
2018-06-08T04:46:34.251Z,13.67
2018-06-08T04:49:01.877Z,14.33
2018-06-08T04:51:29.480Z,13.17
2018-06-08T04:53:57.082Z,12.87
2018-06-08T04:56:24.673Z,12.63
2018-06-08T04:58:52.294Z,13.73
2018-06-08T05:01:19.926Z,12.83
2018-06-08T05:03:47.545Z,13.40
2018-06-08T05:06:15.200Z,13.23
2018-06-08T05:08:42.797Z,15.40
2018-06-08T05:11:10.415Z,13.33
2018-06-08T05:13:38.025Z,14.87
2018-06-08T05:16:05.612Z,13.47
2018-06-08T05:18:33.226Z,15.40
2018-06-08T05:21:00.844Z,14.03
2018-06-08T05:23:28.443Z,14.47
2018-06-08T05:25:56.059Z,16.40
2018-06-08T05:28:23.701Z,15.53
2018-06-08T05:30:51.274Z,14.93
2018-06-08T05:33:18.872Z,14.70
2018-06-08T05:35:46.478Z,14.33
2018-06-08T05:38:14.078Z,15.90
2018-06-08T05:40:41.708Z,14.73
2018-06-08T05:43:09.351Z,15.23
2018-06-08T05:45:36.953Z,15.50
2018-06-08T05:48:04.621Z,14.67
2018-06-08T05:50:32.219Z,16.00
2018-06-08T05:52:59.816Z,15.60
2018-06-08T05:55:27.428Z,14.80
2018-06-08T05:57:55.056Z,14.90
2018-06-08T06:00:22.758Z,14.10
2018-06-08T06:02:50.384Z,13.90
2018-06-08T06:05:17.990Z,13.30
2018-06-08T06:07:45.627Z,14.90
2018-06-08T06:10:13.250Z,13.90
2018-06-08T06:12:40.879Z,12.40
2018-06-08T06:15:08.590Z,13.50
2018-06-08T06:17:36.137Z,12.37
2018-06-08T06:20:03.794Z,13.23
2018-06-08T06:22:31.373Z,12.97
2018-06-08T06:24:58.951Z,12.50
2018-06-08T06:27:26.511Z,12.77
2018-06-08T06:29:54.133Z,12.97
2018-06-08T06:32:21.785Z,12.30
2018-06-08T06:34:49.345Z,14.07
2018-06-08T06:37:16.916Z,11.77
2018-06-08T06:39:44.509Z,11.70
2018-06-08T06:42:12.724Z,11.20
2018-06-08T06:44:40.305Z,12.30
2018-06-08T06:47:07.897Z,12.90
2018-06-08T06:49:35.474Z,12.20
2018-06-08T06:52:03.276Z,13.80
2018-06-08T06:54:30.862Z,12.87
2018-06-08T06:56:58.445Z,12.73
2018-06-08T06:59:26.009Z,11.97
2018-06-08T07:01:53.564Z,12.10
2018-06-08T07:04:21.189Z,13.60
2018-06-08T07:06:48.980Z,12.10
2018-06-08T07:09:16.825Z,11.53
2018-06-08T07:11:44.389Z,11.87
2018-06-08T07:14:12.005Z,14.73
2018-06-08T07:16:39.608Z,13.30
2018-06-08T07:19:07.222Z,12.80
2018-06-08T07:21:34.837Z,13.00
2018-06-08T07:24:02.447Z,12.50
2018-06-08T07:26:30.061Z,13.03
2018-06-08T07:28:57.870Z,13.40
2018-06-08T07:31:25.856Z,13.53
2018-06-08T07:33:53.720Z,14.33
2018-06-08T07:36:21.289Z,12.87
2018-06-08T07:38:48.870Z,12.83
2018-06-08T07:41:16.618Z,13.53
2018-06-08T07:43:44.167Z,12.90
2018-06-08T07:46:11.821Z,13.53
2018-06-08T07:48:39.398Z,13.70
2018-06-08T07:51:06.973Z,15.13
2018-06-08T07:53:34.528Z,15.87
2018-06-08T07:56:02.186Z,14.00
2018-06-08T07:58:29.797Z,14.63
2018-06-08T08:00:57.348Z,15.43
2018-06-08T08:03:24.947Z,13.17
2018-06-08T08:05:52.535Z,15.67
2018-06-08T08:08:20.119Z,14.97
2018-06-08T08:10:47.647Z,13.40
2018-06-08T08:13:15.154Z,14.87
2018-06-08T08:15:42.663Z,12.77
2018-06-08T08:18:10.208Z,14.90
2018-06-08T08:20:37.749Z,13.70
2018-06-08T08:23:05.283Z,13.57
2018-06-08T08:25:32.784Z,14.10
2018-06-08T08:28:00.318Z,13.93
2018-06-08T08:30:27.827Z,13.70
2018-06-08T08:32:55.371Z,13.67
2018-06-08T08:35:22.896Z,14.13
2018-06-08T08:37:50.404Z,12.03
2018-06-08T08:40:17.906Z,12.37
2018-06-08T08:42:45.447Z,12.53
2018-06-08T08:45:13.000Z,10.67
2018-06-08T08:47:40.513Z,11.03
2018-06-08T08:50:08.035Z,12.40
2018-06-08T08:52:35.545Z,10.10
2018-06-08T08:55:03.083Z,9.57
2018-06-08T08:57:30.596Z,9.23
2018-06-08T08:59:58.608Z,10.77
2018-06-08T09:02:26.165Z,9.60
2018-06-08T09:04:53.734Z,9.47
2018-06-08T09:07:21.309Z,10.00
2018-06-08T09:09:48.841Z,10.63
2018-06-08T09:12:16.619Z,10.10
2018-06-08T09:14:44.117Z,10.20
2018-06-08T09:17:11.647Z,9.43
2018-06-08T09:19:39.148Z,8.00
2018-06-08T09:22:06.667Z,9.40
2018-06-08T09:24:34.161Z,9.20
2018-06-08T09:27:01.695Z,9.80
2018-06-08T09:29:29.227Z,10.63
2018-06-08T09:31:56.710Z,9.00
2018-06-08T09:34:24.206Z,10.10
2018-06-08T09:36:51.724Z,10.20
2018-06-08T09:39:19.236Z,8.90
2018-06-08T09:41:46.760Z,8.90
2018-06-08T09:44:14.308Z,9.43
2018-06-08T09:46:41.801Z,10.40
2018-06-08T09:49:09.365Z,9.03
2018-06-08T09:51:36.918Z,9.50
2018-06-08T09:54:04.461Z,9.27
2018-06-08T09:56:31.990Z,8.50
2018-06-08T09:58:59.545Z,8.70
2018-06-08T10:01:27.092Z,8.50
2018-06-08T10:03:54.619Z,9.20
2018-06-08T10:06:22.153Z,8.80
2018-06-08T10:08:49.659Z,8.33
2018-06-08T10:11:17.356Z,8.13
2018-06-08T10:13:44.897Z,8.60
2018-06-08T10:16:12.482Z,8.80
2018-06-08T10:18:40.090Z,9.00
2018-06-08T10:21:07.599Z,7.63
2018-06-08T10:23:35.134Z,8.27
2018-06-08T10:26:02.655Z,8.20
2018-06-08T10:28:30.158Z,6.90
2018-06-08T10:30:57.661Z,7.20
2018-06-08T10:33:25.158Z,6.90
2018-06-08T10:35:52.673Z,7.77
2018-06-08T10:38:20.238Z,7.37
2018-06-08T10:40:47.757Z,7.13
2018-06-08T10:43:15.293Z,7.97
2018-06-08T10:45:42.803Z,7.57
2018-06-08T10:48:10.362Z,8.47
2018-06-08T10:50:37.880Z,8.17
2018-06-08T10:53:05.513Z,8.63
2018-06-08T10:55:33.033Z,8.47
2018-06-08T10:58:00.564Z,7.90
2018-06-08T11:00:28.092Z,9.40
2018-06-08T11:02:55.606Z,9.17
2018-06-08T11:05:23.167Z,9.83
2018-06-08T11:07:50.707Z,9.00
2018-06-08T11:10:18.220Z,9.60
2018-06-08T11:12:45.720Z,8.70
2018-06-08T11:15:13.239Z,9.17
2018-06-08T11:17:40.748Z,9.47
2018-06-08T11:20:08.438Z,8.50
2018-06-08T11:22:35.992Z,9.07
2018-06-08T11:25:03.560Z,9.30
2018-06-08T11:27:31.081Z,8.07
2018-06-08T11:29:58.645Z,8.80
2018-06-08T11:32:26.165Z,8.70
2018-06-08T11:34:53.713Z,8.67
2018-06-08T11:37:21.271Z,8.47
2018-06-08T11:39:50.063Z,8.63
2018-06-08T11:42:17.652Z,8.33
2018-06-08T11:44:45.184Z,7.87
2018-06-08T11:47:12.678Z,8.63
2018-06-08T11:49:40.207Z,9.00
2018-06-08T11:52:07.706Z,8.17
2018-06-08T11:54:35.392Z,8.77
2018-06-08T11:57:02.995Z,8.03
2018-06-08T11:59:30.493Z,7.47
2018-06-08T12:01:58.080Z,7.87
2018-06-08T12:04:25.623Z,7.90
2018-06-08T12:06:53.147Z,7.43
2018-06-08T12:09:20.642Z,7.03
2018-06-08T12:11:48.138Z,6.77
2018-06-08T12:14:15.648Z,6.37
2018-06-08T12:16:43.158Z,6.60
2018-06-08T12:19:10.669Z,6.67
2018-06-08T12:21:38.286Z,6.57
2018-06-08T12:24:05.904Z,8.60
2018-06-08T12:26:33.454Z,7.60
2018-06-08T12:29:01.032Z,7.07
2018-06-08T12:31:28.623Z,6.80
2018-06-08T12:33:56.234Z,7.17
2018-06-08T12:36:23.805Z,7.50
2018-06-08T12:38:51.400Z,7.20
2018-06-08T12:41:19.041Z,6.90
2018-06-08T12:43:46.612Z,6.23
2018-06-08T12:46:14.202Z,6.47
2018-06-08T12:48:41.791Z,7.67
2018-06-08T12:51:10.267Z,7.20
2018-06-08T12:53:37.845Z,7.60
2018-06-08T12:56:05.469Z,7.60
2018-06-08T12:58:33.061Z,7.70
2018-06-08T13:01:00.660Z,7.00
2018-06-08T13:03:28.275Z,7.30
2018-06-08T13:05:55.891Z,8.00
2018-06-08T13:08:23.490Z,7.70
2018-06-08T13:10:51.314Z,6.47
2018-06-08T13:13:19.578Z,6.27
2018-06-08T13:15:48.283Z,6.80
2018-06-08T13:18:15.911Z,6.10
2018-06-08T13:20:43.519Z,6.10
2018-06-08T13:23:11.078Z,5.90
2018-06-08T13:25:38.677Z,6.33
2018-06-08T13:28:06.267Z,5.97
2018-06-08T13:30:33.829Z,6.33
2018-06-08T13:33:01.412Z,5.60
2018-06-08T13:35:29.020Z,5.73
2018-06-08T13:37:56.589Z,6.40
2018-06-08T13:40:25.194Z,6.10
2018-06-08T13:42:52.789Z,6.20
2018-06-08T13:45:20.380Z,6.40
2018-06-08T13:47:47.933Z,5.80
2018-06-08T13:50:15.513Z,6.10
2018-06-08T13:52:43.526Z,6.23
2018-06-08T13:55:11.145Z,6.40
2018-06-08T13:57:39.859Z,6.27
2018-06-08T14:00:07.691Z,6.00
2018-06-08T14:02:36.456Z,5.30
2018-06-08T14:05:04.088Z,5.83
2018-06-08T14:07:33.108Z,6.10
2018-06-08T14:10:01.078Z,6.53
2018-06-08T14:12:30.554Z,6.50
2018-06-08T14:15:00.619Z,6.40
2018-06-08T14:17:29.724Z,6.40
2018-06-08T14:19:59.176Z,6.20
2018-06-08T14:22:29.813Z,6.43
2018-06-08T14:24:59.114Z,6.20
2018-06-08T14:27:28.830Z,6.53
2018-06-08T14:29:56.422Z,6.77
2018-06-08T14:32:23.994Z,6.90
2018-06-08T14:34:51.561Z,7.20
2018-06-08T14:37:19.112Z,6.87
2018-06-08T14:39:46.665Z,6.90
2018-06-08T14:42:14.227Z,6.67
2018-06-08T14:44:41.848Z,7.10
2018-06-08T14:47:09.421Z,7.13
2018-06-08T14:49:37.033Z,7.30
2018-06-08T14:52:04.652Z,7.37
2018-06-08T14:54:32.244Z,7.90
2018-06-08T14:56:59.811Z,7.87
2018-06-08T14:59:27.398Z,7.23
2018-06-08T15:01:55.019Z,7.90
2018-06-08T15:04:22.608Z,8.23
2018-06-08T15:06:50.190Z,7.50
2018-06-08T15:09:17.777Z,7.93
2018-06-08T15:11:45.393Z,7.70
2018-06-08T15:14:13.004Z,9.17
2018-06-08T15:16:40.613Z,8.57
2018-06-08T15:19:08.206Z,9.10
2018-06-08T15:21:35.777Z,9.13
2018-06-08T15:24:03.319Z,8.20
2018-06-08T15:26:30.891Z,8.30
2018-06-08T15:28:58.530Z,8.33
2018-06-08T15:31:26.137Z,9.30
2018-06-08T15:33:53.760Z,9.13
2018-06-08T15:36:21.324Z,8.60
2018-06-08T15:38:48.962Z,9.07
2018-06-08T15:41:16.622Z,8.23
2018-06-08T15:43:44.177Z,9.30
2018-06-08T15:46:11.741Z,8.67
2018-06-08T15:48:39.362Z,9.10
2018-06-08T15:51:06.936Z,8.30
2018-06-08T15:53:34.598Z,9.40
2018-06-08T15:56:02.228Z,9.70
2018-06-08T15:58:29.827Z,10.33
2018-06-08T16:00:57.449Z,10.73
2018-06-08T16:03:25.052Z,10.50
2018-06-08T16:05:52.696Z,10.63
2018-06-08T16:08:20.304Z,10.57
2018-06-08T16:10:47.900Z,12.37
2018-06-08T16:13:15.496Z,11.23
2018-06-08T16:15:43.102Z,11.27
2018-06-08T16:18:10.698Z,11.57
2018-06-08T16:20:38.376Z,12.50
2018-06-08T16:23:05.936Z,11.93
2018-06-08T16:25:33.508Z,11.27
2018-06-08T16:28:01.096Z,11.70
2018-06-08T16:30:28.681Z,11.63
2018-06-08T16:32:56.283Z,11.00
2018-06-08T16:35:23.960Z,12.27
2018-06-08T16:37:51.610Z,12.00
2018-06-08T16:40:19.232Z,12.37
2018-06-08T16:42:46.835Z,11.63
2018-06-08T16:45:14.425Z,12.23
2018-06-08T16:47:42.025Z,11.90
2018-06-08T16:50:09.616Z,12.17
2018-06-08T16:52:37.270Z,11.60
2018-06-08T16:55:04.915Z,11.70
2018-06-08T16:57:33.708Z,11.77
2018-06-08T17:00:01.730Z,11.53
2018-06-08T17:02:29.359Z,12.20
2018-06-08T17:04:56.953Z,10.90
2018-06-08T17:07:24.568Z,11.53
2018-06-08T17:09:52.192Z,12.20
2018-06-08T17:12:19.800Z,12.43
2018-06-08T17:14:47.380Z,12.80
2018-06-08T17:17:14.988Z,12.23
2018-06-08T17:19:42.589Z,13.50
2018-06-08T17:22:10.204Z,12.57
2018-06-08T17:24:37.821Z,12.23
2018-06-08T17:27:05.749Z,13.13
2018-06-08T17:29:33.353Z,13.17
2018-06-08T17:32:00.939Z,12.27
2018-06-08T17:34:28.561Z,13.40
2018-06-08T17:36:56.272Z,12.70
2018-06-08T17:39:23.894Z,14.63
2018-06-08T17:41:51.491Z,12.23
2018-06-08T17:44:19.090Z,10.97
2018-06-08T17:46:46.711Z,9.87
2018-06-08T17:49:14.373Z,8.87
2018-06-08T17:51:41.970Z,8.80
2018-06-08T17:54:09.628Z,10.60
2018-06-08T17:56:37.268Z,10.10
2018-06-08T17:59:04.940Z,9.30
2018-06-08T18:01:32.647Z,10.47
2018-06-08T18:04:00.294Z,10.83
2018-06-08T18:06:27.983Z,12.30
2018-06-08T18:08:55.620Z,11.83
2018-06-08T18:11:23.282Z,13.13
2018-06-08T18:13:50.927Z,11.50
2018-06-08T18:16:18.606Z,11.50
2018-06-08T18:18:46.317Z,11.83
2018-06-08T18:21:13.964Z,12.17
2018-06-08T18:23:41.590Z,13.07
2018-06-08T18:26:09.272Z,13.00
2018-06-08T18:28:36.953Z,13.03
2018-06-08T18:31:04.629Z,12.40
2018-06-08T18:33:32.312Z,13.57
2018-06-08T18:35:59.975Z,12.07
2018-06-08T18:38:27.687Z,12.63
2018-06-08T18:40:55.896Z,10.53
2018-06-08T18:43:23.527Z,11.00
2018-06-08T18:45:51.211Z,9.40
2018-06-08T18:48:18.905Z,9.50
2018-06-08T18:50:46.569Z,8.50
2018-06-08T18:53:14.202Z,6.70
2018-06-08T18:55:41.887Z,6.60
2018-06-08T18:58:09.820Z,5.27
2018-06-08T19:00:37.492Z,5.23
2018-06-08T19:03:05.204Z,5.80
2018-06-08T19:05:32.909Z,6.60
2018-06-08T19:08:00.549Z,6.07
2018-06-08T19:10:28.257Z,7.77
2018-06-08T19:12:55.990Z,10.40
2018-06-08T19:15:23.684Z,12.13
2018-06-08T19:17:51.415Z,11.87
2018-06-08T19:20:19.528Z,11.30
2018-06-08T19:22:47.187Z,11.50
2018-06-08T19:25:14.855Z,12.23
2018-06-08T19:27:42.552Z,11.73
2018-06-08T19:30:10.234Z,10.90
2018-06-08T19:32:37.890Z,11.90
2018-06-08T19:35:05.709Z,13.00
2018-06-08T19:37:33.386Z,11.57
2018-06-08T19:40:01.122Z,11.40
2018-06-08T19:42:28.774Z,11.63
2018-06-08T19:44:56.418Z,11.00
2018-06-08T19:47:24.100Z,9.90
2018-06-08T19:49:51.725Z,10.70
2018-06-08T19:52:19.501Z,12.03
2018-06-08T19:54:47.449Z,10.07
2018-06-08T19:57:15.096Z,11.37
2018-06-08T19:59:42.768Z,9.90
2018-06-08T20:02:10.421Z,11.17
2018-06-08T20:04:38.042Z,10.13
2018-06-08T20:07:05.698Z,9.73
2018-06-08T20:09:33.374Z,10.50
2018-06-08T20:12:01.018Z,9.50
2018-06-08T20:14:28.679Z,10.57
2018-06-08T20:16:56.292Z,10.10
2018-06-08T20:19:23.956Z,11.17
2018-06-08T20:21:51.652Z,10.50
2018-06-08T20:24:19.300Z,11.47
2018-06-08T20:26:46.972Z,11.33
2018-06-08T20:29:14.607Z,11.00
2018-06-08T20:31:42.342Z,12.90
2018-06-08T20:34:10.032Z,11.40
2018-06-08T20:36:37.741Z,11.67
2018-06-08T20:39:06.577Z,11.17
2018-06-08T20:41:34.238Z,12.77
2018-06-08T20:44:01.870Z,12.77
2018-06-08T20:46:29.534Z,10.90
2018-06-08T20:48:57.143Z,12.07
2018-06-08T20:51:24.775Z,11.83
2018-06-08T20:53:52.770Z,12.10
2018-06-08T20:56:20.419Z,10.63
2018-06-08T20:58:48.206Z,10.10
2018-06-08T21:01:15.822Z,9.50
2018-06-08T21:03:43.464Z,9.27
2018-06-08T21:06:11.123Z,9.93
2018-06-08T21:08:38.746Z,9.00
2018-06-08T21:11:06.424Z,9.63
2018-06-08T21:13:34.132Z,10.30
2018-06-08T21:16:04.093Z,9.70
2018-06-08T21:18:32.016Z,10.40
2018-06-08T21:20:59.667Z,10.67
2018-06-08T21:23:27.310Z,9.97
2018-06-08T21:25:54.951Z,9.90
2018-06-08T21:28:22.574Z,9.70
2018-06-08T21:30:50.192Z,10.00
2018-06-08T21:33:17.844Z,9.10
2018-06-08T21:35:45.475Z,9.40
2018-06-08T21:38:13.094Z,10.27
2018-06-08T21:40:40.728Z,13.33
2018-06-08T21:43:08.333Z,12.17
2018-06-08T21:45:35.945Z,11.03
2018-06-08T21:48:03.528Z,9.80
2018-06-08T21:50:31.120Z,9.93
2018-06-08T21:52:58.720Z,10.20
2018-06-08T21:55:26.426Z,8.20
2018-06-08T21:57:53.962Z,8.80
2018-06-08T22:00:21.571Z,8.20
2018-06-08T22:02:49.138Z,7.23
2018-06-08T22:05:16.792Z,6.17
2018-06-08T22:07:44.379Z,5.93
2018-06-08T22:10:11.983Z,7.63
2018-06-08T22:12:39.589Z,7.20
2018-06-08T22:15:07.202Z,6.80
2018-06-08T22:17:34.800Z,7.10
2018-06-08T22:20:02.369Z,5.93
2018-06-08T22:22:29.957Z,5.63
2018-06-08T22:24:57.577Z,6.80
2018-06-08T22:27:25.141Z,6.77
2018-06-08T22:29:52.713Z,6.90
2018-06-08T22:32:20.298Z,7.40
2018-06-08T22:34:47.893Z,6.30
2018-06-08T22:37:15.504Z,7.60
2018-06-08T22:39:43.088Z,5.23
2018-06-08T22:42:10.694Z,6.17
2018-06-08T22:44:38.277Z,6.13
2018-06-08T22:47:05.848Z,7.10
2018-06-08T22:49:33.425Z,6.47
2018-06-08T22:52:00.997Z,7.00
2018-06-08T22:54:28.603Z,6.40
2018-06-08T22:56:56.208Z,6.40
2018-06-08T22:59:23.772Z,6.87
2018-06-08T23:01:51.362Z,7.40
2018-06-08T23:04:19.023Z,6.40
2018-06-08T23:06:46.634Z,6.40
2018-06-08T23:09:14.202Z,7.20
2018-06-08T23:11:41.812Z,5.80
2018-06-08T23:14:09.418Z,5.53
2018-06-08T23:16:36.974Z,5.30
2018-06-08T23:19:04.592Z,4.80
2018-06-08T23:21:32.169Z,4.03
2018-06-08T23:23:59.778Z,4.80
2018-06-08T23:26:27.390Z,4.30
2018-06-08T23:28:54.950Z,4.80
2018-06-08T23:31:22.546Z,4.60
2018-06-08T23:33:50.135Z,5.43
2018-06-08T23:36:17.719Z,5.70
2018-06-08T23:38:45.292Z,8.83
2018-06-08T23:41:12.886Z,10.00
2018-06-08T23:43:40.469Z,8.70
2018-06-08T23:46:08.060Z,8.33
2018-06-08T23:48:35.675Z,8.93
2018-06-08T23:51:03.264Z,7.13
2018-06-08T23:53:30.881Z,7.53
2018-06-08T23:55:58.499Z,8.07
2018-06-08T23:58:26.093Z,6.00
